Time;durP1;ratioP1;P1;durP2;ratioP2;P2;SDS_P1;SDS_P2;PMS_P1;PMS_P2;Temp;Humidity;BMP_temperature;BMP_pressure;BME280_temperature;BME280_humidity;BME280_pressure;Samples;Min_cycle;Max_cycle;Signal;HPM_P1;HPM_P2
2023/07/21 00:01:28;;;;;;;2.63;1.58;;;14.70;99.90;;;;;;10398200;28;20203;-80
2023/07/21 00:06:49;;;;;;;3.97;1.48;;;14.70;99.90;;;;;;10398074;28;20203;-82
2023/07/21 00:12:10;;;;;;;2.33;1.70;;;14.70;99.90;;;;;;10398404;28;20470;-79
2023/07/21 00:17:32;;;;;;;3.58;2.03;;;14.60;1.00;;;;;;10356771;28;20226;-79
2023/07/21 00:22:53;;;;;;;3.35;1.52;;;14.60;99.90;;;;;;10378828;28;20199;-83
2023/07/21 00:28:14;;;;;;;3.03;1.42;;;14.60;99.90;;;;;;10357865;28;20576;-78
2023/07/21 00:33:36;;;;;;;3.17;1.50;;;14.50;99.90;;;;;;10344992;28;20498;-81
2023/07/21 00:38:58;;;;;;;3.13;1.40;;;14.50;99.90;;;;;;10374980;28;20210;-81
2023/07/21 00:44:20;;;;;;;2.85;1.42;;;14.50;32.80;;;;;;10395673;28;20255;-79
2023/07/21 00:49:43;;;;;;;2.85;1.33;;;14.50;99.90;;;;;;10411721;28;20231;-79
2023/07/21 00:55:05;;;;;;;4.50;1.45;;;14.40;99.90;;;;;;10395852;28;20302;-80
2023/07/21 01:00:27;;;;;;;3.38;1.40;;;14.30;99.90;;;;;;10384211;28;20536;-79
2023/07/21 01:05:52;;;;;;;1.38;1.10;;;14.30;99.90;;;;;;10364706;28;20202;-77
2023/07/21 01:11:13;;;;;;;3.03;1.33;;;14.30;99.90;;;;;;10407613;28;20243;-79
2023/07/21 01:16:43;;;;;;;3.35;1.15;;;14.20;99.90;;;;;;10410848;28;20210;-81
2023/07/21 01:22:42;;;;;;;3.20;1.20;;;14.10;1.00;;;;;;10380418;28;20218;-80
2023/07/21 01:28:06;;;;;;;2.50;1.48;;;14.10;1.00;;;;;;10376114;28;20214;-79
2023/07/21 01:33:29;;;;;;;3.13;1.63;;;14.10;1.00;;;;;;10408124;28;20467;-78
2023/07/21 01:38:50;;;;;;;1.00;0.75;;;14.10;53.40;;;;;;10402837;28;20236;-81
2023/07/21 01:44:12;;;;;;;2.97;1.23;;;14.00;99.90;;;;;;10419255;28;20420;-79
2023/07/21 01:49:34;;;;;;;3.50;1.20;;;13.90;1.00;;;;;;10431834;28;20250;-80
2023/07/21 01:55:04;;;;;;;2.85;1.35;;;13.90;1.00;;;;;;10417851;28;20217;-82
2023/07/21 02:00:34;;;;;;;2.25;1.23;;;13.90;1.00;;;;;;10364948;28;20248;-79
2023/07/21 02:05:58;;;;;;;2.35;1.38;;;13.90;1.00;;;;;;10353760;28;20199;-83
2023/07/21 02:11:20;;;;;;;1.98;1.42;;;13.80;1.00;;;;;;10387822;28;20540;-82
2023/07/21 02:16:50;;;;;;;6.43;1.70;;;13.80;1.00;;;;;;10393894;28;20199;-83
2023/07/21 02:22:13;;;;;;;3.08;1.50;;;13.80;1.00;;;;;;10394187;28;20231;-82
2023/07/21 02:27:35;;;;;;;3.75;1.63;;;13.70;1.00;;;;;;10392437;28;20277;-81
2023/07/21 02:32:57;;;;;;;2.30;1.40;;;;;;;;;;10380524;28;20197;-82
2023/07/21 02:38:18;;;;;;;3.55;1.70;;;13.60;99.90;;;;;;10386747;28;20496;-84
2023/07/21 02:43:40;;;;;;;14.65;6.30;;;13.60;99.90;;;;;;10406837;28;20437;-83
2023/07/21 02:49:01;;;;;;;12.52;5.85;;;13.70;1.00;;;;;;10395927;28;20532;-81
2023/07/21 02:54:22;;;;;;;10.70;5.03;;;13.80;99.90;;;;;;10378316;28;20261;-83
2023/07/21 02:59:45;;;;;;;4.38;2.38;;;13.80;99.90;;;;;;10378448;28;20203;-80
2023/07/21 03:05:09;;;;;;;2.05;1.40;;;13.80;99.90;;;;;;10354535;28;20216;-78
2023/07/21 03:10:31;;;;;;;2.63;1.80;;;13.80;99.90;;;;;;10394652;28;20241;-78
2023/07/21 03:15:53;;;;;;;3.55;1.45;;;13.80;1.00;;;;;;10398632;28;20500;-79
2023/07/21 03:21:21;;;;;;;2.58;1.23;;;13.80;1.00;;;;;;10385572;28;20201;-78
2023/07/21 03:26:44;;;;;;;3.08;1.60;;;13.80;1.00;;;;;;10385162;28;20207;-79
2023/07/21 03:32:07;;;;;;;3.88;1.50;;;13.80;1.00;;;;;;10398235;28;20234;-78
2023/07/21 03:37:30;;;;;;;4.05;2.42;;;13.70;1.00;;;;;;10413020;28;20237;-78
2023/07/21 03:42:53;;;;;;;4.22;2.00;;;13.70;99.90;;;;;;10384046;28;20351;-84
2023/07/21 03:48:15;;;;;;;2.95;1.80;;;13.70;1.00;;;;;;10384544;28;20245;-79
2023/07/21 03:53:37;;;;;;;4.25;1.90;;;13.80;99.90;;;;;;10385334;28;20391;-79
2023/07/21 03:59:02;;;;;;;2.88;1.63;;;13.70;1.00;;;;;;10396930;28;20224;-78
2023/07/21 04:04:23;;;;;;;3.03;1.55;;;13.80;99.90;;;;;;10398209;28;20278;-82
2023/07/21 04:09:45;;;;;;;2.00;1.63;;;13.90;1.00;;;;;;10378181;28;20236;-79
2023/07/21 04:15:07;;;;;;;2.28;1.20;;;13.90;35.60;;;;;;10386187;28;20269;-81
2023/07/21 04:20:31;;;;;;;3.88;1.20;;;13.90;1.00;;;;;;10397394;28;20199;-79
2023/07/21 04:25:53;;;;;;;4.53;1.60;;;14.00;99.90;;;;;;10397229;28;20207;-80
2023/07/21 04:31:15;;;;;;;3.25;1.30;;;14.00;1.00;;;;;;10396629;28;20245;-82
2023/07/21 04:37:03;;;;;;;3.45;1.35;;;14.00;1.00;;;;;;10392058;28;20207;-79
2023/07/21 04:42:29;;;;;;;3.13;0.98;;;14.00;99.90;;;;;;10354383;28;20216;-80
2023/07/21 04:47:53;;;;;;;4.57;1.38;;;14.10;1.00;;;;;;10382613;28;20317;-81
2023/07/21 04:53:17;;;;;;;4.10;1.80;;;14.10;1.00;;;;;;10382589;28;20533;-82
2023/07/21 04:58:39;;;;;;;3.92;1.30;;;14.20;1.00;;;;;;10396298;28;20555;-80
2023/07/21 05:04:01;;;;;;;5.28;1.70;;;14.20;99.90;;;;;;10396403;28;20204;-80
2023/07/21 05:09:22;;;;;;;3.85;1.45;;;14.40;1.00;;;;;;10395717;28;20227;-79
2023/07/21 05:14:44;;;;;;;5.65;1.65;;;14.50;99.90;;;;;;10379107;28;20253;-81
2023/07/21 05:20:26;;;;;;;2.70;1.45;;;14.60;94.20;;;;;;10395532;28;20501;-79
2023/07/21 05:26:02;;;;;;;3.05;1.73;;;14.90;99.90;;;;;;10386244;28;20206;-82
2023/07/21 05:31:28;;;;;;;4.25;1.42;;;15.30;1.00;;;;;;10404152;28;20230;-80
2023/07/21 05:36:52;;;;;;;2.25;1.15;;;15.70;99.90;;;;;;10380518;28;20200;-82
2023/07/21 05:42:15;;;;;;;4.25;1.30;;;15.90;1.00;;;;;;10363507;28;20233;-81
2023/07/21 05:47:37;;;;;;;4.28;1.65;;;16.00;1.00;;;;;;10353895;28;20459;-81
2023/07/21 05:52:59;;;;;;;4.45;1.52;;;16.20;1.00;;;;;;10339599;28;20276;-80
2023/07/21 05:58:23;;;;;;;4.00;1.98;;;16.50;1.00;;;;;;10368063;28;20204;-82
2023/07/21 06:03:45;;;;;;;2.72;1.10;;;16.80;99.90;;;;;;10366821;28;20254;-84
2023/07/21 06:09:06;;;;;;;4.25;1.42;;;17.00;99.90;;;;;;10379825;28;20402;-83
2023/07/21 06:14:57;;;;;;;3.63;1.30;;;17.10;46.70;;;;;;10382343;28;20215;-80
2023/07/21 06:20:44;;;;;;;6.30;1.77;;;17.20;30.00;;;;;;10392667;28;20196;-81
2023/07/21 06:26:06;;;;;;;4.05;1.20;;;17.40;1.00;;;;;;10380374;28;20222;-83
2023/07/21 06:31:27;;;;;;;7.35;1.88;;;17.70;1.00;;;;;;10392227;28;20423;-82
2023/07/21 06:37:16;;;;;;;4.07;1.85;;;18.00;1.00;;;;;;10367079;28;20216;-84
2023/07/21 06:42:43;;;;;;;5.18;1.65;;;18.20;1.00;;;;;;10374023;28;20213;-80
2023/07/21 06:48:28;;;;;;;4.53;1.67;;;18.60;1.00;;;;;;10380253;28;20302;-79
2023/07/21 06:54:17;;;;;;;5.90;1.88;;;18.90;1.00;;;;;;10384557;28;20215;-80
2023/07/21 06:59:38;;;;;;;2.60;1.23;;;18.70;1.00;;;;;;10357421;28;20212;-80
2023/07/21 07:04:59;;;;;;;3.58;1.55;;;18.70;1.00;;;;;;10395135;28;20208;-82
2023/07/21 07:10:20;;;;;;;3.10;1.55;;;18.90;1.00;;;;;;10382348;28;20237;-81
2023/07/21 07:15:49;;;;;;;3.50;1.58;;;19.20;1.00;;;;;;10375717;28;20228;-78
2023/07/21 07:21:10;;;;;;;3.63;1.40;;;19.90;1.00;;;;;;10383834;28;20444;-81
2023/07/21 07:26:33;;;;;;;2.90;1.50;;;20.60;1.00;;;;;;10392380;28;20229;-82
2023/07/21 07:31:55;;;;;;;8.32;4.70;;;21.20;99.90;;;;;;10409241;28;20221;-80
2023/07/21 07:37:16;;;;;;;5.65;1.60;;;21.40;99.90;;;;;;10359779;28;20284;-78
2023/07/21 07:42:40;;;;;;;5.38;1.75;;;21.10;99.90;;;;;;10377193;28;20209;-80
2023/07/21 07:48:01;;;;;;;11.00;1.70;;;21.60;99.90;;;;;;10362068;28;20241;-79
2023/07/21 07:53:23;;;;;;;4.28;1.27;;;22.40;99.90;;;;;;10409506;28;20531;-79
2023/07/21 07:58:44;;;;;;;3.45;1.30;;;23.00;99.90;;;;;;10392977;28;20197;-79
2023/07/21 08:04:06;;;;;;;3.03;1.23;;;23.70;99.90;;;;;;10379537;28;20205;-81
2023/07/21 08:09:27;;;;;;;3.97;1.00;;;23.30;99.90;;;;;;10378518;28;20221;-79
2023/07/21 08:14:48;;;;;;;1.35;1.05;;;23.50;99.90;;;;;;10379179;28;20251;-79
2023/07/21 08:20:10;;;;;;;3.88;1.27;;;24.00;99.90;;;;;;10376082;28;20212;-79
2023/07/21 08:25:31;;;;;;;2.17;1.23;;;24.20;99.90;;;;;;10393448;28;20409;-83
2023/07/21 08:30:53;;;;;;;3.88;1.23;;;24.30;99.90;;;;;;10404533;28;20517;-79
2023/07/21 08:36:17;;;;;;;8.10;0.98;;;24.60;99.90;;;;;;10392516;28;20200;-79
2023/07/21 08:41:46;;;;;;;2.47;1.00;;;24.60;99.90;;;;;;10337841;28;20201;-79
2023/07/21 08:47:08;;;;;;;4.68;1.17;;;24.50;99.90;;;;;;10353327;28;20245;-79
2023/07/21 08:52:31;;;;;;;2.55;1.02;;;24.30;99.90;;;;;;10350628;28;20225;-79
2023/07/21 08:57:58;;;;;;;3.53;2.60;;;24.30;99.90;;;;;;10380473;28;20277;-79
2023/07/21 09:03:24;;;;;;;2.22;1.42;;;23.50;99.90;;;;;;10351908;28;20432;-81
2023/07/21 09:08:49;;;;;;;3.80;1.40;;;22.90;99.90;;;;;;10365527;28;20217;-83
2023/07/21 09:14:10;;;;;;;1.95;1.27;;;23.70;99.90;;;;;;10366848;28;20214;-86
2023/07/21 09:19:41;;;;;;;2.22;1.08;;;24.40;99.90;;;;;;10350127;28;20198;-84
2023/07/21 09:25:02;;;;;;;2.10;1.25;;;24.70;99.90;;;;;;10357598;28;20251;-80
2023/07/21 09:30:24;;;;;;;6.07;1.23;;;24.50;99.90;;;;;;10372529;28;20252;-80
2023/07/21 09:35:46;;;;;;;1.77;1.25;;;23.90;99.90;;;;;;10406227;28;20205;-80
2023/07/21 09:41:14;;;;;;;3.58;1.20;;;24.00;99.90;;;;;;10387532;28;20228;-79
2023/07/21 09:46:36;;;;;;;1.35;0.93;;;24.80;99.90;;;;;;10386840;28;20241;-80
2023/07/21 09:51:58;;;;;;;14.02;1.52;;;25.50;99.90;;;;;;10370750;28;20328;-81
2023/07/21 09:57:23;;;;;;;1.38;0.75;;;26.20;99.90;;;;;;10389843;28;20204;-79
2023/07/21 10:02:52;;;;;;;2.55;0.60;;;26.70;99.90;;;;;;10387870;28;20220;-79
2023/07/21 10:08:15;;;;;;;2.88;0.60;;;26.80;99.90;;;;;;10388320;28;20193;-80
2023/07/21 10:13:44;;;;;;;3.03;1.15;;;25.30;99.90;;;;;;10388737;28;20240;-80
2023/07/21 10:19:12;;;;;;;3.63;0.80;;;25.40;99.90;;;;;;10391607;28;20491;-79
2023/07/21 10:24:43;;;;;;;10.43;1.30;;;26.40;99.90;;;;;;10396580;28;20450;-79
2023/07/21 10:30:21;;;;;;;4.55;0.85;;;26.60;99.90;;;;;;10374110;28;20301;-80
2023/07/21 10:35:42;;;;;;;6.88;1.30;;;26.40;99.90;;;;;;10384889;28;20209;-79
2023/07/21 10:41:03;;;;;;;1.58;0.90;;;27.00;99.90;;;;;;10395613;28;20251;-80
2023/07/21 10:46:25;;;;;;;1.27;0.80;;;27.40;99.90;;;;;;10383875;28;20248;-79
2023/07/21 10:51:48;;;;;;;3.55;0.90;;;27.50;99.90;;;;;;10356051;28;20244;-80
2023/07/21 10:57:10;;;;;;;3.45;1.00;;;26.80;99.90;;;;;;10372031;28;20190;-79
2023/07/21 11:02:31;;;;;;;1.45;0.70;;;27.10;99.90;;;;;;10391865;28;20201;-82
2023/07/21 11:07:52;;;;;;;1.63;0.90;;;27.60;99.90;;;;;;10354672;28;20208;-81
2023/07/21 11:13:14;;;;;;;1.63;0.70;;;27.40;99.90;;;;;;10374280;28;20566;-80
2023/07/21 11:18:41;;;;;;;1.08;0.90;;;27.50;99.90;;;;;;10394858;28;20193;-78
2023/07/21 11:24:04;;;;;;;2.20;0.90;;;27.60;99.90;;;;;;10377897;28;20507;-79
2023/07/21 11:29:29;;;;;;;2.00;0.90;;;27.40;99.90;;;;;;10348115;28;20430;-79
2023/07/21 11:34:57;;;;;;;4.95;4.13;;;27.50;99.90;;;;;;10378848;28;20252;-79
2023/07/21 11:40:18;;;;;;;0.95;0.70;;;27.50;99.90;;;;;;10392825;28;20584;-79
2023/07/21 11:45:41;;;;;;;1.25;0.85;;;27.60;99.90;;;;;;10384200;28;20234;-79
2023/07/21 11:51:06;;;;;;;3.67;0.95;;;27.20;99.90;;;;;;10352435;28;20234;-79
2023/07/21 11:56:27;;;;;;;0.80;0.73;;;27.20;99.90;;;;;;10387426;28;20209;-80
2023/07/21 12:01:49;;;;;;;1.23;0.68;;;27.40;99.90;;;;;;10393323;28;20251;-82
2023/07/21 12:07:10;;;;;;;1.13;0.80;;;27.70;99.90;;;;;;10393501;28;20772;-82
2023/07/21 12:12:31;;;;;;;1.17;0.90;;;27.60;99.90;;;;;;10391545;28;20267;-81
2023/07/21 12:17:53;;;;;;;2.78;1.08;;;27.10;99.90;;;;;;10392782;28;20210;-81
2023/07/21 12:23:14;;;;;;;1.60;0.90;;;26.20;99.90;;;;;;10381801;28;20210;-82
2023/07/21 12:28:37;;;;;;;2.25;0.90;;;25.80;99.90;;;;;;10367673;28;20251;-83
2023/07/21 12:33:59;;;;;;;1.65;0.80;;;25.40;99.90;;;;;;10390961;28;20286;-79
2023/07/21 12:39:20;;;;;;;0.82;0.60;;;25.10;99.90;;;;;;10433419;28;20311;-85
2023/07/21 12:44:43;;;;;;;2.15;0.90;;;24.70;99.90;;;;;;10433416;28;20526;-79
2023/07/21 12:50:04;;;;;;;2.53;0.95;;;24.60;99.90;;;;;;10431053;28;20230;-80
2023/07/21 12:55:26;;;;;;;1.83;0.90;;;24.50;99.90;;;;;;10432816;28;20215;-82
2023/07/21 13:00:47;;;;;;;1.38;1.02;;;24.50;99.90;;;;;;10431550;28;20192;-79
2023/07/21 13:06:09;;;;;;;9.02;3.08;;;24.20;99.90;;;;;;10397470;28;20213;-81
2023/07/21 13:11:30;;;;;;;1.08;0.80;;;24.00;99.90;;;;;;10439673;28;20227;-80
2023/07/21 13:16:52;;;;;;;1.60;0.70;;;23.90;99.90;;;;;;10430366;28;20339;-83
2023/07/21 13:22:13;;;;;;;2.35;0.95;;;23.90;99.90;;;;;;10418223;28;20207;-81
2023/07/21 13:27:35;;;;;;;1.58;0.82;;;24.10;99.90;;;;;;10439472;28;20235;-79
2023/07/21 13:32:57;;;;;;;4.07;0.90;;;24.30;99.90;;;;;;10438992;28;20226;-82
2023/07/21 13:38:18;;;;;;;1.23;0.95;;;24.30;99.90;;;;;;10429829;28;20208;-80
2023/07/21 13:43:39;;;;;;;2.55;1.10;;;24.30;99.90;;;;;;10415575;28;20192;-82
2023/07/21 13:49:01;;;;;;;2.58;1.63;;;24.30;99.90;;;;;;10404165;28;20204;-83
2023/07/21 13:54:23;;;;;;;3.95;1.38;;;24.30;99.90;;;;;;10393113;28;20319;-79
2023/07/21 13:59:44;;;;;;;4.90;1.30;;;24.30;99.90;;;;;;10428213;28;20201;-79
2023/07/21 14:05:06;;;;;;;1.65;1.25;;;24.10;99.90;;;;;;10415724;28;20217;-81
2023/07/21 14:10:27;;;;;;;2.90;1.08;;;24.20;99.90;;;;;;10429923;28;20831;-84
2023/07/21 14:15:49;;;;;;;3.92;1.10;;;24.60;99.90;;;;;;10445315;28;20291;-80
2023/07/21 14:21:10;;;;;;;5.40;2.95;;;24.70;99.90;;;;;;10429980;28;20220;-83
2023/07/21 14:26:31;;;;;;;2.15;1.30;;;24.50;99.90;;;;;;10429390;28;20196;-80
2023/07/21 14:31:53;;;;;;;1.95;0.93;;;24.30;99.90;;;;;;10428371;28;20292;-85
2023/07/21 14:37:14;;;;;;;1.33;1.00;;;24.10;99.90;;;;;;10432426;28;20207;-80
2023/07/21 14:42:38;;;;;;;5.90;1.42;;;24.10;99.90;;;;;;10432986;28;20200;-81
2023/07/21 14:47:59;;;;;;;4.25;1.13;;;24.00;99.90;;;;;;10415781;28;20239;-79
2023/07/21 14:53:21;;;;;;;1.05;0.85;;;23.70;99.90;;;;;;10390312;28;20305;-80
2023/07/21 14:58:42;;;;;;;1.42;0.98;;;23.40;99.90;;;;;;10442019;28;20206;-80
2023/07/21 15:04:04;;;;;;;1.63;1.15;;;;;;;;;;10423474;28;20204;-80
2023/07/21 15:09:28;;;;;;;2.90;1.05;;;23.10;99.90;;;;;;10440903;28;20199;-84
2023/07/21 15:14:49;;;;;;;1.95;1.00;;;23.00;99.90;;;;;;10440997;28;20196;-81
2023/07/21 15:20:15;;;;;;;2.15;1.05;;;22.90;99.90;;;;;;10440315;28;20232;-80
2023/07/21 15:25:37;;;;;;;1.60;1.00;;;22.80;99.90;;;;;;10441485;28;20210;-80
2023/07/21 15:31:08;;;;;;;4.20;3.20;;;22.70;99.90;;;;;;10439804;28;20244;-83
2023/07/21 15:36:30;;;;;;;6.35;2.15;;;22.50;99.90;;;;;;10438510;28;20209;-83
2023/07/21 15:41:51;;;;;;;2.63;1.50;;;22.40;99.90;;;;;;10455824;28;20208;-81
2023/07/21 15:47:12;;;;;;;2.80;1.10;;;22.30;99.90;;;;;;10439844;28;20334;-82
2023/07/21 15:52:34;;;;;;;1.40;1.02;;;22.20;99.90;;;;;;10455312;28;20275;-79
2023/07/21 15:57:55;;;;;;;2.10;1.30;;;22.10;99.90;;;;;;10399580;28;20196;-82
2023/07/21 16:03:17;;;;;;;5.80;1.92;;;22.00;99.90;;;;;;10397718;28;20212;-81
2023/07/21 16:08:38;;;;;;;2.85;1.20;;;21.90;99.90;;;;;;10412774;28;20219;-82
2023/07/21 16:13:59;;;;;;;2.15;1.27;;;21.70;99.90;;;;;;10438954;28;20227;-82
2023/07/21 16:19:21;;;;;;;2.95;1.30;;;21.60;99.90;;;;;;10438421;28;20227;-83
2023/07/21 16:24:43;;;;;;;1.45;1.30;;;21.60;99.90;;;;;;10422637;28;20204;-78
2023/07/21 16:30:05;;;;;;;6.50;3.00;;;21.50;99.90;;;;;;10434128;28;20420;-82
2023/07/21 16:35:26;;;;;;;2.38;1.48;;;21.30;99.90;;;;;;10424289;28;20192;-80
2023/07/21 16:40:47;;;;;;;5.78;2.33;;;21.00;99.90;;;;;;10436558;28;20255;-80
2023/07/21 16:46:09;;;;;;;5.43;2.78;;;20.60;99.90;;;;;;10436976;28;20236;-79
2023/07/21 16:51:30;;;;;;;3.28;2.00;;;20.50;1.00;;;;;;10438098;28;20220;-82
2023/07/21 16:56:51;;;;;;;3.05;2.08;;;20.20;1.00;;;;;;10435744;28;20259;-79
2023/07/21 17:02:13;;;;;;;2.53;1.70;;;20.20;1.00;;;;;;10436716;28;20200;-80
2023/07/21 17:07:34;;;;;;;2.85;1.85;;;20.20;99.90;;;;;;10433791;28;20433;-79
2023/07/21 17:12:55;;;;;;;2.60;1.75;;;20.00;99.90;;;;;;10381537;28;20251;-79
2023/07/21 17:18:17;;;;;;;7.32;4.40;;;19.80;99.90;;;;;;10395386;28;20189;-78
2023/07/21 17:23:39;;;;;;;8.13;4.80;;;19.70;99.90;;;;;;10430976;28;20204;-83
2023/07/21 17:29:00;;;;;;;9.20;4.40;;;19.70;99.90;;;;;;10435930;28;20227;-81
2023/07/21 17:34:21;;;;;;;5.90;3.47;;;19.50;1.00;;;;;;10435485;28;20274;-79
2023/07/21 17:39:43;;;;;;;6.22;4.15;;;19.50;1.00;;;;;;10434432;28;20242;-79
2023/07/21 17:45:06;;;;;;;5.82;3.83;;;19.50;1.00;;;;;;10435170;28;20239;-78
2023/07/21 17:50:27;;;;;;;6.10;3.40;;;19.40;1.00;;;;;;10436384;28;20417;-78
2023/07/21 17:55:51;;;;;;;4.93;3.28;;;19.30;1.00;;;;;;10433418;28;20287;-84
2023/07/21 18:01:12;;;;;;;5.25;3.30;;;19.30;1.00;;;;;;10436414;28;20585;-78
2023/07/21 18:06:34;;;;;;;6.38;3.25;;;19.20;1.00;;;;;;10436318;28;20199;-80
2023/07/21 18:11:55;;;;;;;5.00;3.65;;;19.20;1.00;;;;;;10436377;28;20227;-81
2023/07/21 18:17:17;;;;;;;4.68;3.17;;;19.20;99.90;;;;;;10436420;28;20203;-81
2023/07/21 18:22:38;;;;;;;4.75;3.17;;;19.10;99.90;;;;;;10434835;28;20267;-78
2023/07/21 18:28:00;;;;;;;5.55;3.65;;;18.90;99.90;;;;;;10412183;28;20420;-79
2023/07/21 18:33:22;;;;;;;9.70;3.72;;;18.90;99.90;;;;;;10433792;28;20232;-86
2023/07/21 18:38:45;;;;;;;6.82;4.25;;;18.80;1.00;;;;;;10420961;28;20451;-79
2023/07/21 18:44:06;;;;;;;7.07;3.85;;;18.70;1.00;;;;;;10441386;28;20228;-80
2023/07/21 18:49:28;;;;;;;6.90;3.78;;;18.60;99.90;;;;;;10442727;28;20221;-85
2023/07/21 18:54:49;;;;;;;5.50;3.50;;;18.60;1.00;;;;;;10442121;28;20216;-80
2023/07/21 19:00:12;;;;;;;4.35;3.22;;;18.50;1.00;;;;;;10439711;28;20210;-78
2023/07/21 19:05:34;;;;;;;4.60;3.15;;;18.50;99.90;;;;;;10442992;28;20212;-79
2023/07/21 19:10:55;;;;;;;4.57;3.13;;;18.40;99.90;;;;;;10435279;28;20220;-79
2023/07/21 19:16:17;;;;;;;4.65;3.17;;;18.30;1.00;;;;;;10442358;28;20189;-78
2023/07/21 19:21:39;;;;;;;3.88;2.95;;;18.20;1.00;;;;;;10440033;28;20251;-78
2023/07/21 19:27:00;;;;;;;4.40;2.65;;;18.30;1.00;;;;;;10456249;28;20244;-78
2023/07/21 19:32:22;;;;;;;6.30;2.40;;;18.30;1.00;;;;;;10442455;28;20228;-84
2023/07/21 19:37:43;;;;;;;4.07;2.83;;;18.40;1.00;;;;;;10449216;28;20193;-78
2023/07/21 19:43:04;;;;;;;3.30;2.38;;;18.30;1.00;;;;;;10455299;28;20231;-78
2023/07/21 19:48:25;;;;;;;5.35;2.85;;;18.20;99.90;;;;;;10439539;28;20243;-78
2023/07/21 19:53:48;;;;;;;4.55;3.17;;;18.20;1.00;;;;;;10437122;28;20246;-78
2023/07/21 19:59:09;;;;;;;3.67;2.60;;;18.10;1.00;;;;;;10439444;28;20227;-78
2023/07/21 20:04:31;;;;;;;5.10;2.97;;;18.10;99.90;;;;;;10440452;28;20501;-77
2023/07/21 20:09:53;;;;;;;3.50;2.90;;;;;;;;;;10439884;28;20271;-78
2023/07/21 20:15:16;;;;;;;3.83;2.88;;;;;;;;;;10435733;28;20303;-77
2023/07/21 20:20:38;;;;;;;5.00;3.58;;;;;;;;;;10439330;28;20219;-78
2023/07/21 20:26:05;;;;;;;5.07;3.72;;;;;;;;;;10440981;28;20224;-78
2023/07/21 20:31:27;;;;;;;7.93;5.80;;;;;;;;;;10432508;28;20224;-80
2023/07/21 20:36:49;;;;;;;8.98;6.40;;;;;;;;;;10437715;28;20283;-78
2023/07/21 20:42:10;;;;;;;9.40;5.93;;;;;;;;;;10435930;28;20507;-78
2023/07/21 20:47:32;;;;;;;7.75;5.00;;;;;;;;;;10435118;28;20236;-81
2023/07/21 20:52:54;;;;;;;7.80;5.43;;;;;;;;;;10438311;28;20262;-78
2023/07/21 20:58:15;;;;;;;9.50;5.32;;;;;;;;;;10436577;28;20269;-78
2023/07/21 21:03:37;;;;;;;11.63;4.93;;;;;;;;;;10438242;28;20200;-80
2023/07/21 21:08:58;;;;;;;5.90;4.15;;;;;;;;;;10425963;28;20449;-79
2023/07/21 21:14:20;;;;;;;10.52;4.57;;;;;;;;;;10414272;28;20236;-79
2023/07/21 21:19:41;;;;;;;5.43;4.57;;;;;;;;;;10436420;28;20193;-79
2023/07/21 21:25:03;;;;;;;5.78;4.43;;;;;;;;;;10436934;28;20210;-81
2023/07/21 21:30:25;;;;;;;6.35;4.97;;;;;;;;;;10434957;28;20379;-79
2023/07/21 21:35:46;;;;;;;6.88;4.40;;;17.30;16.30;;;;;;10435864;28;20199;-84
2023/07/21 21:41:07;;;;;;;7.70;4.20;;;17.20;1.00;;;;;;10436011;28;20202;-80
2023/07/21 21:46:29;;;;;;;7.18;4.10;;;17.10;1.00;;;;;;10431594;28;20278;-80
2023/07/21 21:51:50;;;;;;;4.88;3.90;;;17.00;99.90;;;;;;10438705;28;20245;-81
2023/07/21 21:57:12;;;;;;;6.55;4.45;;;16.90;99.90;;;;;;10422248;28;20217;-78
2023/07/21 22:02:34;;;;;;;5.55;3.97;;;16.90;1.00;;;;;;10436496;28;20196;-80
2023/07/21 22:07:55;;;;;;;4.30;3.75;;;16.80;1.00;;;;;;10447311;28;20200;-79
2023/07/21 22:13:16;;;;;;;5.75;4.10;;;16.70;1.00;;;;;;10413160;28;20250;-78
2023/07/21 22:18:38;;;;;;;6.35;4.43;;;16.70;1.00;;;;;;10443027;28;20190;-80
2023/07/21 22:23:59;;;;;;;6.90;4.47;;;16.70;99.90;;;;;;10459567;28;20216;-79
2023/07/21 22:29:20;;;;;;;5.80;3.83;;;16.60;1.00;;;;;;10441452;28;20282;-79
2023/07/21 22:34:42;;;;;;;5.65;4.55;;;16.60;1.00;;;;;;10401770;28;20227;-78
2023/07/21 22:40:04;;;;;;;4.53;3.90;;;16.60;1.00;;;;;;10401805;28;20190;-81
2023/07/21 22:45:25;;;;;;;4.63;3.38;;;16.60;99.90;;;;;;10439774;28;20252;-81
2023/07/21 22:50:46;;;;;;;6.05;3.60;;;16.60;99.90;;;;;;10443269;28;20449;-80
2023/07/21 22:56:08;;;;;;;4.28;3.45;;;16.50;99.90;;;;;;10457267;28;20207;-78
2023/07/21 23:01:29;;;;;;;4.40;3.33;;;16.50;1.00;;;;;;10441621;28;20224;-78
2023/07/21 23:06:52;;;;;;;7.07;3.70;;;16.40;1.00;;;;;;10441680;28;20220;-78
2023/07/21 23:12:13;;;;;;;5.07;3.50;;;16.40;1.00;;;;;;10435637;28;20422;-81
2023/07/21 23:17:36;;;;;;;6.57;3.05;;;16.30;99.90;;;;;;10457428;28;20384;-78
2023/07/21 23:22:57;;;;;;;4.38;3.10;;;16.30;1.00;;;;;;10457138;28;20493;-79
2023/07/21 23:28:18;;;;;;;6.63;3.28;;;16.30;1.00;;;;;;10438801;28;20504;-80
2023/07/21 23:33:39;;;;;;;6.03;3.22;;;16.20;99.90;;;;;;10440390;28;20246;-79
2023/07/21 23:39:00;;;;;;;3.13;2.78;;;16.10;99.90;;;;;;10440586;28;20192;-85
2023/07/21 23:44:22;;;;;;;4.18;2.83;;;15.90;1.00;;;;;;10439266;28;20424;-79
2023/07/21 23:49:43;;;;;;;3.17;2.22;;;15.90;99.90;;;;;;10441338;28;20267;-82
2023/07/21 23:55:05;;;;;;;3.25;2.38;;;15.80;99.90;;;;;;10441056;28;20280;-78
